Time;durP1;ratioP1;P1;durP2;ratioP2;P2;SDS_P1;SDS_P2;PMS_P1;PMS_P2;Temp;Humidity;BMP_temperature;BMP_pressure;BME280_temperature;BME280_humidity;BME280_pressure;Samples;Min_cycle;Max_cycle;Signal;HPM_P1;HPM_P2
2022/09/08 00:01:28;;;;;;;1.67;1.30;;;25.50;46.90;;;;;;4916801;29;20433;-70
2022/09/08 00:03:58;;;;;;;1.10;1.00;;;25.50;46.90;;;;;;4907637;29;20473;-71
2022/09/08 00:06:27;;;;;;;1.50;1.17;;;25.50;46.80;;;;;;4912651;29;20805;-70
2022/09/08 00:08:55;;;;;;;1.50;1.30;;;25.50;46.80;;;;;;4896028;29;20453;-70
2022/09/08 00:11:28;;;;;;;1.90;1.40;;;25.40;46.70;;;;;;4910716;29;20441;-70
2022/09/08 00:13:58;;;;;;;2.97;1.40;;;25.50;46.70;;;;;;4895000;29;20493;-70
2022/09/08 00:16:26;;;;;;;1.17;1.07;;;25.50;46.70;;;;;;4895346;29;20473;-70
2022/09/08 00:18:55;;;;;;;1.57;1.23;;;25.40;46.60;;;;;;4894014;29;20466;-71
2022/09/08 00:21:28;;;;;;;1.43;1.23;;;25.50;46.70;;;;;;4893007;29;20452;-70
2022/09/08 00:23:57;;;;;;;2.07;1.33;;;25.50;46.70;;;;;;4911825;29;20465;-70
2022/09/08 00:26:26;;;;;;;2.60;1.50;;;25.40;46.70;;;;;;4893239;29;20472;-71
2022/09/08 00:28:54;;;;;;;1.20;1.10;;;25.50;46.90;;;;;;4909806;29;20445;-70
2022/09/08 00:31:23;;;;;;;1.30;1.20;;;25.40;46.70;;;;;;4892725;29;20477;-70
2022/09/08 00:33:51;;;;;;;1.87;1.70;;;25.40;46.70;;;;;;4895826;29;20496;-70
2022/09/08 00:36:20;;;;;;;1.30;1.20;;;25.40;46.70;;;;;;4894726;29;20426;-70
2022/09/08 00:38:52;;;;;;;1.43;1.13;;;25.40;46.70;;;;;;4894738;29;20449;-70
2022/09/08 00:41:22;;;;;;;2.70;1.30;;;25.40;46.80;;;;;;4905726;29;20971;-70
2022/09/08 00:43:58;;;;;;;1.30;1.17;;;25.40;46.70;;;;;;4910456;29;20459;-70
2022/09/08 00:46:31;;;;;;;2.33;1.67;;;25.40;46.70;;;;;;4905023;29;20445;-70
2022/09/08 00:49:07;;;;;;;1.40;1.30;;;25.40;46.70;;;;;;4909944;29;20445;-70
2022/09/08 00:51:38;;;;;;;1.40;1.30;;;25.40;46.70;;;;;;4911310;29;20942;-70
2022/09/08 00:54:10;;;;;;;1.70;1.27;;;25.40;46.80;;;;;;4894460;29;20482;-70
2022/09/08 00:56:40;;;;;;;1.33;1.07;;;25.40;46.80;;;;;;4892033;29;20456;-70
2022/09/08 00:59:09;;;;;;;1.40;1.30;;;25.40;46.80;;;;;;4894258;29;20441;-70
2022/09/08 01:01:38;;;;;;;1.97;1.40;;;25.40;46.80;;;;;;4879153;29;20440;-70
2022/09/08 01:04:07;;;;;;;1.80;1.23;;;25.40;46.90;;;;;;4898497;29;20981;-70
2022/09/08 01:12:46;;;;;;;1.93;1.57;;;25.40;46.80;;;;;;4878261;29;20472;-70
2022/09/08 01:15:18;;;;;;;1.57;1.40;;;25.40;46.90;;;;;;4910884;29;20457;-70
2022/09/08 01:17:48;;;;;;;1.40;1.30;;;25.40;46.80;;;;;;4909818;29;20507;-70
2022/09/08 01:20:19;;;;;;;1.60;1.30;;;25.40;47.00;;;;;;4904820;29;20481;-70
2022/09/08 01:23:01;;;;;;;1.50;1.20;;;25.40;47.00;;;;;;4908918;29;20580;-70
2022/09/08 01:26:01;;;;;;;1.10;1.00;;;25.30;46.90;;;;;;4893626;29;21009;-70
2022/09/08 01:28:37;;;;;;;1.83;1.20;;;25.40;46.90;;;;;;4909423;29;20527;-70
2022/09/08 01:31:07;;;;;;;2.50;1.37;;;25.40;46.90;;;;;;4898966;29;20803;-70
2022/09/08 01:33:38;;;;;;;1.70;1.00;;;25.30;46.80;;;;;;4905793;29;20478;-70
2022/09/08 01:36:11;;;;;;;1.73;1.30;;;25.30;46.80;;;;;;4908755;29;21152;-70
2022/09/08 01:38:39;;;;;;;1.50;1.23;;;25.40;46.90;;;;;;4894438;29;20477;-70
2022/09/08 01:41:08;;;;;;;1.50;1.30;;;25.40;47.00;;;;;;4893397;29;20449;-70
2022/09/08 01:43:38;;;;;;;1.30;1.07;;;25.30;47.00;;;;;;4892433;29;20477;-71
2022/09/08 01:46:06;;;;;;;0.90;0.90;;;25.30;47.00;;;;;;4901286;29;20546;-70
2022/09/08 01:48:35;;;;;;;1.00;0.90;;;25.30;47.00;;;;;;4902033;29;20484;-70
2022/09/08 01:51:05;;;;;;;1.60;1.30;;;25.40;47.10;;;;;;4898830;29;20473;-70
2022/09/08 01:53:35;;;;;;;1.23;1.00;;;25.30;47.00;;;;;;4909427;29;20500;-70
2022/09/08 01:56:04;;;;;;;1.97;1.30;;;25.30;47.00;;;;;;4893146;29;20457;-70
2022/09/08 01:58:33;;;;;;;1.77;1.20;;;25.30;47.00;;;;;;4894229;29;20997;-70
2022/09/08 02:01:03;;;;;;;1.97;1.53;;;25.30;47.00;;;;;;4910934;29;20500;-70
2022/09/08 02:03:32;;;;;;;1.60;1.50;;;25.30;47.00;;;;;;4936216;23;20854;-68
2022/09/08 02:06:02;;;;;;;1.33;1.23;;;25.30;47.00;;;;;;4933685;29;20969;-68
2022/09/08 02:08:31;;;;;;;1.80;1.20;;;25.30;47.00;;;;;;4926906;29;20480;-70
2022/09/08 02:11:00;;;;;;;1.43;1.30;;;25.30;47.00;;;;;;4932450;29;20479;-70
2022/09/08 02:13:29;;;;;;;1.20;1.10;;;25.30;47.00;;;;;;4936289;29;20517;-69
2022/09/08 02:16:06;;;;;;;1.50;1.40;;;25.30;47.00;;;;;;4937690;29;20443;-70
2022/09/08 02:18:35;;;;;;;1.50;1.40;;;25.30;47.10;;;;;;4932488;29;20779;-69
2022/09/08 02:21:06;;;;;;;1.20;1.10;;;25.30;47.10;;;;;;4934306;29;20456;-70
2022/09/08 02:23:35;;;;;;;1.50;1.40;;;25.30;47.10;;;;;;4936133;29;20472;-70
2022/09/08 02:26:04;;;;;;;1.30;1.20;;;25.30;47.20;;;;;;4928954;29;20462;-69
2022/09/08 02:28:33;;;;;;;1.40;1.20;;;25.20;47.20;;;;;;4933684;29;20476;-70
2022/09/08 02:31:03;;;;;;;1.20;1.03;;;25.20;47.20;;;;;;4952918;29;20475;-71
2022/09/08 02:33:32;;;;;;;1.20;1.10;;;25.20;47.20;;;;;;4935323;29;20479;-69
2022/09/08 02:36:00;;;;;;;1.40;1.20;;;25.20;47.30;;;;;;4924591;29;20453;-70
2022/09/08 02:38:29;;;;;;;1.37;1.27;;;25.20;47.30;;;;;;4935013;29;20471;-69
2022/09/08 02:40:57;;;;;;;2.20;1.37;;;25.20;47.40;;;;;;4943449;28;20566;-71
2022/09/08 02:43:26;;;;;;;1.40;1.30;;;25.20;47.70;;;;;;4935406;29;20891;-71
2022/09/08 02:45:55;;;;;;;1.47;1.37;;;25.20;47.70;;;;;;4931184;29;20472;-70
2022/09/08 02:48:24;;;;;;;1.37;1.20;;;25.20;47.70;;;;;;4932189;29;20475;-70
2022/09/08 02:50:53;;;;;;;1.53;1.10;;;25.20;47.60;;;;;;4928339;29;20454;-71
2022/09/08 02:53:25;;;;;;;1.40;1.20;;;25.20;47.80;;;;;;4935503;29;20471;-69
2022/09/08 02:55:54;;;;;;;1.57;1.30;;;25.20;47.70;;;;;;4935380;29;20447;-70
2022/09/08 02:58:22;;;;;;;2.17;1.40;;;25.20;47.60;;;;;;4916272;29;20484;-71
2022/09/08 03:00:51;;;;;;;2.07;1.33;;;25.20;47.80;;;;;;4946025;29;20453;-70
2022/09/08 03:03:21;;;;;;;1.80;1.03;;;25.20;47.80;;;;;;4921328;29;20481;-71
2022/09/08 03:05:52;;;;;;;1.50;1.17;;;25.10;47.80;;;;;;4946926;29;20531;-71
2022/09/08 03:08:21;;;;;;;1.80;1.37;;;25.10;47.70;;;;;;4933348;29;21102;-70
2022/09/08 03:10:50;;;;;;;2.97;1.20;;;25.10;47.90;;;;;;4931378;29;20479;-70
2022/09/08 03:13:19;;;;;;;1.30;1.20;;;25.10;47.80;;;;;;4930731;29;20479;-70
2022/09/08 03:15:47;;;;;;;2.10;1.40;;;25.10;47.80;;;;;;4933456;29;20499;-70
2022/09/08 03:18:16;;;;;;;2.40;1.27;;;25.10;47.70;;;;;;4931252;29;20563;-70
2022/09/08 03:20:46;;;;;;;1.97;1.10;;;25.10;47.80;;;;;;4930214;29;20436;-69
2022/09/08 03:23:20;;;;;;;1.20;1.10;;;25.10;47.80;;;;;;4932343;29;21006;-70
2022/09/08 03:25:49;;;;;;;2.40;1.33;;;25.10;47.80;;;;;;4932563;29;20996;-70
2022/09/08 03:28:21;;;;;;;1.77;1.10;;;25.10;47.80;;;;;;4944871;28;20679;-70
2022/09/08 03:30:50;;;;;;;1.90;1.47;;;25.10;47.70;;;;;;4928949;29;20452;-71
2022/09/08 03:33:18;;;;;;;1.40;1.30;;;25.10;47.80;;;;;;4912973;28;20484;-71
2022/09/08 03:35:48;;;;;;;1.40;1.20;;;25.10;47.80;;;;;;4931125;29;20503;-71
2022/09/08 03:38:18;;;;;;;1.80;1.27;;;25.10;47.80;;;;;;4922660;29;20465;-71
2022/09/08 03:40:47;;;;;;;1.17;1.07;;;25.10;47.80;;;;;;4922387;29;20856;-70
2022/09/08 03:43:15;;;;;;;1.93;1.33;;;25.10;48.10;;;;;;4923008;29;20472;-71
2022/09/08 03:45:45;;;;;;;1.90;1.47;;;25.10;48.10;;;;;;4923720;29;20483;-71
2022/09/08 03:48:15;;;;;;;2.57;1.23;;;25.10;48.10;;;;;;4932149;29;20494;-71
2022/09/08 03:50:43;;;;;;;2.60;1.53;;;25.10;48.20;;;;;;4914675;29;20459;-71
2022/09/08 03:53:12;;;;;;;1.43;0.90;;;25.10;48.20;;;;;;4948234;29;20476;-71
2022/09/08 03:55:43;;;;;;;2.20;1.37;;;25.00;48.10;;;;;;4946824;29;20464;-70
2022/09/08 03:58:12;;;;;;;1.77;1.00;;;25.10;48.30;;;;;;4923606;29;20480;-71
2022/09/08 04:00:42;;;;;;;7.33;1.90;;;25.10;48.30;;;;;;4931912;29;20447;-71
2022/09/08 04:03:11;;;;;;;2.20;1.20;;;25.00;48.30;;;;;;4927185;29;20479;-70
2022/09/08 04:05:40;;;;;;;2.13;1.47;;;25.10;48.30;;;;;;4930757;29;20444;-71
2022/09/08 04:08:08;;;;;;;6.20;1.57;;;25.00;48.20;;;;;;4930809;29;20982;-71
2022/09/08 04:10:37;;;;;;;1.90;1.73;;;25.00;48.10;;;;;;4931608;29;20451;-71
2022/09/08 04:13:07;;;;;;;1.50;1.07;;;25.00;48.20;;;;;;4948166;29;20467;-70
2022/09/08 04:15:39;;;;;;;2.50;1.67;;;25.00;48.20;;;;;;4927479;29;20468;-71
2022/09/08 04:18:08;;;;;;;1.27;1.17;;;25.00;49.30;;;;;;4930592;29;20468;-71
2022/09/08 04:20:38;;;;;;;1.63;1.10;;;25.00;48.10;;;;;;4943842;29;21050;-71
2022/09/08 04:23:07;;;;;;;1.10;0.90;;;25.00;48.10;;;;;;4949279;28;20892;-71
2022/09/08 04:25:36;;;;;;;1.60;1.37;;;25.00;48.10;;;;;;4925680;29;20547;-71
2022/09/08 04:28:04;;;;;;;1.87;1.43;;;25.00;48.10;;;;;;4926823;29;20500;-71
2022/09/08 04:30:34;;;;;;;3.33;1.27;;;25.00;48.00;;;;;;4931521;29;20466;-72
2022/09/08 04:33:02;;;;;;;2.40;1.30;;;25.00;48.20;;;;;;4948293;28;20475;-71
2022/09/08 04:35:31;;;;;;;1.60;1.20;;;25.00;48.20;;;;;;4916521;29;20455;-71
2022/09/08 04:38:00;;;;;;;1.53;1.37;;;24.90;48.10;;;;;;4925981;28;21062;-71
2022/09/08 04:40:28;;;;;;;1.73;1.40;;;25.00;48.20;;;;;;4915202;29;20447;-71
2022/09/08 04:42:57;;;;;;;1.57;1.20;;;24.90;48.10;;;;;;4930461;29;20470;-71
2022/09/08 04:45:25;;;;;;;1.40;1.20;;;24.90;48.10;;;;;;4926761;29;20876;-70
2022/09/08 04:47:55;;;;;;;3.37;1.50;;;24.90;48.10;;;;;;4927116;29;20851;-71
2022/09/08 04:50:23;;;;;;;2.40;1.33;;;24.90;48.10;;;;;;4928863;29;20444;-71
2022/09/08 04:52:52;;;;;;;1.37;1.10;;;24.90;48.20;;;;;;4931351;29;21035;-70
2022/09/08 04:55:20;;;;;;;1.33;1.23;;;24.90;48.10;;;;;;4930177;29;20476;-71
2022/09/08 04:57:49;;;;;;;2.07;1.10;;;24.90;48.20;;;;;;4922759;29;20476;-71
2022/09/08 05:00:18;;;;;;;1.50;1.40;;;24.90;48.20;;;;;;4925722;29;20440;-71
2022/09/08 05:02:48;;;;;;;2.50;1.17;;;24.90;48.20;;;;;;4927689;29;20501;-71
2022/09/08 05:05:18;;;;;;;4.60;1.50;;;24.90;48.30;;;;;;4926845;29;20459;-71
2022/09/08 05:07:49;;;;;;;1.67;1.47;;;24.90;48.30;;;;;;4926623;29;20479;-71
2022/09/08 05:10:18;;;;;;;1.50;1.40;;;24.90;48.30;;;;;;4923703;29;20475;-71
2022/09/08 05:12:47;;;;;;;1.30;1.20;;;24.90;48.30;;;;;;4927981;29;20831;-71
2022/09/08 05:15:15;;;;;;;1.07;0.97;;;24.90;49.40;;;;;;4932259;29;20499;-71
2022/09/08 05:17:44;;;;;;;2.60;1.50;;;24.90;48.30;;;;;;4930160;29;20510;-70
2022/09/08 05:20:12;;;;;;;3.67;1.63;;;24.90;48.30;;;;;;4930281;29;20833;-70
2022/09/08 05:22:42;;;;;;;2.70;1.20;;;24.90;48.40;;;;;;4931224;29;20478;-70
2022/09/08 05:25:12;;;;;;;1.20;0.80;;;24.90;48.30;;;;;;4926354;29;20891;-70
2022/09/08 05:27:41;;;;;;;1.70;1.27;;;24.90;48.30;;;;;;4932430;29;20464;-71
2022/09/08 05:30:11;;;;;;;1.40;1.30;;;24.90;48.40;;;;;;4928677;29;20543;-71
2022/09/08 05:32:39;;;;;;;1.80;0.80;;;24.90;48.30;;;;;;4940191;28;20527;-71
2022/09/08 05:35:09;;;;;;;2.60;1.47;;;24.80;48.20;;;;;;4935734;29;20992;-70
2022/09/08 05:37:37;;;;;;;1.63;1.27;;;24.90;48.50;;;;;;4931388;29;20478;-71
2022/09/08 05:40:08;;;;;;;3.30;1.47;;;24.80;48.40;;;;;;4930785;29;20547;-71
2022/09/08 05:42:36;;;;;;;1.50;1.40;;;24.80;48.30;;;;;;4931190;29;20590;-71
2022/09/08 05:45:06;;;;;;;2.00;1.10;;;24.80;48.10;;;;;;4918767;29;20492;-71
2022/09/08 05:47:35;;;;;;;1.20;1.07;;;24.80;48.10;;;;;;4932756;29;20475;-71
2022/09/08 05:50:04;;;;;;;3.43;1.50;;;24.80;48.20;;;;;;4936858;29;20503;-72
2022/09/08 05:52:32;;;;;;;1.80;1.20;;;24.80;48.20;;;;;;4931311;29;20472;-71
2022/09/08 05:55:01;;;;;;;2.50;1.27;;;24.80;48.30;;;;;;4950685;29;21454;-71
2022/09/08 05:57:31;;;;;;;1.47;1.20;;;24.80;48.30;;;;;;4936004;29;20466;-71
2022/09/08 06:00:00;;;;;;;3.07;1.60;;;24.80;48.20;;;;;;4923023;29;20865;-70
2022/09/08 06:02:37;;;;;;;2.60;1.30;;;24.80;48.20;;;;;;4952710;28;20471;-70
2022/09/08 06:05:06;;;;;;;1.23;0.83;;;24.80;48.30;;;;;;4927885;29;20472;-71
2022/09/08 06:07:34;;;;;;;1.77;1.17;;;24.80;48.40;;;;;;4930271;29;20476;-70
2022/09/08 06:10:04;;;;;;;1.90;1.27;;;24.80;48.50;;;;;;4948409;29;22072;-70
2022/09/08 06:12:34;;;;;;;3.43;1.20;;;24.80;48.60;;;;;;4930018;29;20474;-70
2022/09/08 06:15:02;;;;;;;2.00;1.50;;;24.70;48.60;;;;;;4931368;29;20467;-71
2022/09/08 06:17:31;;;;;;;1.50;1.37;;;24.70;48.80;;;;;;4933671;29;20471;-71
2022/09/08 06:19:59;;;;;;;1.43;1.33;;;24.70;48.60;;;;;;4934271;29;20439;-70
2022/09/08 06:22:31;;;;;;;3.27;1.80;;;24.70;50.00;;;;;;4933038;29;20566;-70
2022/09/08 06:24:59;;;;;;;1.97;1.20;;;24.70;48.80;;;;;;4912208;29;20511;-71
2022/09/08 06:27:38;;;;;;;1.70;1.20;;;24.70;48.80;;;;;;4928440;29;20479;-70
2022/09/08 06:30:11;;;;;;;1.60;1.07;;;24.70;48.90;;;;;;4934868;29;20435;-71
2022/09/08 06:32:45;;;;;;;2.87;1.70;;;24.70;48.90;;;;;;4927621;29;20479;-71
2022/09/08 06:35:17;;;;;;;1.50;1.20;;;24.70;49.10;;;;;;4947845;29;20784;-70
2022/09/08 06:37:49;;;;;;;2.00;1.43;;;24.60;48.90;;;;;;4927460;29;20574;-70
2022/09/08 06:40:24;;;;;;;2.43;1.70;;;24.60;49.00;;;;;;4925719;29;21038;-71
2022/09/08 06:42:57;;;;;;;1.20;1.10;;;24.60;48.90;;;;;;4926175;28;20471;-71
2022/09/08 06:45:34;;;;;;;1.10;0.93;;;24.60;48.90;;;;;;4932843;29;20458;-70
2022/09/08 06:48:17;;;;;;;1.33;1.10;;;24.60;48.90;;;;;;4924213;29;20494;-69
2022/09/08 06:50:56;;;;;;;3.03;1.30;;;24.60;48.90;;;;;;4931070;29;20444;-70
2022/09/08 06:53:30;;;;;;;1.67;1.20;;;24.60;48.90;;;;;;4921923;29;20471;-70
2022/09/08 06:56:09;;;;;;;1.80;1.17;;;24.60;49.00;;;;;;4931979;28;20554;-70
2022/09/08 06:59:02;;;;;;;0.83;0.80;;;24.60;48.90;;;;;;4934305;29;20811;-71
2022/09/08 07:01:36;;;;;;;2.43;1.40;;;24.60;49.00;;;;;;4925932;29;20449;-70
2022/09/08 07:04:19;;;;;;;3.57;1.23;;;24.60;48.90;;;;;;4941241;29;20605;-71
2022/09/08 07:06:53;;;;;;;1.40;0.97;;;24.60;48.90;;;;;;4930508;29;20478;-70
2022/09/08 07:09:30;;;;;;;2.40;1.20;;;24.60;48.90;;;;;;4927531;29;20531;-70
2022/09/08 07:12:13;;;;;;;1.17;1.07;;;24.60;48.90;;;;;;4950267;29;20439;-72
2022/09/08 07:15:04;;;;;;;1.67;1.50;;;24.60;49.00;;;;;;4933933;29;20530;-71
2022/09/08 07:17:42;;;;;;;2.07;1.20;;;24.50;48.90;;;;;;4926280;29;20459;-70
2022/09/08 07:20:12;;;;;;;2.40;1.30;;;24.60;49.10;;;;;;4950994;29;20431;-70
2022/09/08 07:22:46;;;;;;;1.80;1.20;;;24.60;49.00;;;;;;4935187;28;20861;-71
2022/09/08 07:25:26;;;;;;;1.37;1.27;;;24.60;49.00;;;;;;4932135;29;20469;-71
2022/09/08 07:28:01;;;;;;;2.60;1.50;;;24.50;48.90;;;;;;4927247;29;20907;-70
2022/09/08 07:30:30;;;;;;;2.20;0.83;;;24.50;49.00;;;;;;4934567;29;20502;-71
2022/09/08 07:33:14;;;;;;;2.30;1.23;;;24.50;49.10;;;;;;4927664;29;20467;-71
2022/09/08 07:35:54;;;;;;;2.70;1.20;;;24.50;49.40;;;;;;4927584;29;20820;-71
2022/09/08 07:38:32;;;;;;;2.40;1.40;;;24.50;49.40;;;;;;4929875;29;20478;-70
2022/09/08 07:41:01;;;;;;;1.50;1.40;;;24.50;49.60;;;;;;4932470;29;21040;-70
2022/09/08 07:43:29;;;;;;;1.17;1.00;;;24.50;49.70;;;;;;4913834;29;20482;-71
2022/09/08 07:46:15;;;;;;;2.03;1.23;;;24.50;49.40;;;;;;4923021;29;20462;-71
2022/09/08 07:48:54;;;;;;;2.00;0.97;;;24.50;49.40;;;;;;4925932;29;22051;-70
2022/09/08 07:51:26;;;;;;;1.23;0.90;;;24.50;49.30;;;;;;4926963;29;20436;-70
2022/09/08 07:54:07;;;;;;;0.90;0.60;;;24.50;49.20;;;;;;4909515;29;20471;-71
2022/09/08 07:56:41;;;;;;;1.47;1.37;;;24.50;49.30;;;;;;4949346;29;20464;-70
2022/09/08 07:59:38;;;;;;;2.27;1.10;;;24.50;49.40;;;;;;4932133;29;20491;-70
2022/09/08 08:02:14;;;;;;;1.87;1.53;;;24.50;49.40;;;;;;4945681;29;20869;-70
2022/09/08 08:05:01;;;;;;;1.17;1.00;;;24.50;49.40;;;;;;4906660;29;20477;-72
2022/09/08 08:07:35;;;;;;;3.33;1.40;;;24.50;49.40;;;;;;4887547;29;20445;-72
2022/09/08 08:10:13;;;;;;;1.53;1.30;;;24.50;49.70;;;;;;4892017;29;20533;-72
2022/09/08 08:12:50;;;;;;;1.67;1.10;;;24.50;50.00;;;;;;4909287;29;20527;-73
2022/09/08 08:15:21;;;;;;;1.53;1.33;;;24.50;50.10;;;;;;4908769;29;20466;-73
2022/09/08 08:17:55;;;;;;;1.90;1.13;;;24.50;49.90;;;;;;4905932;29;20487;-73
2022/09/08 08:20:33;;;;;;;2.10;1.20;;;24.50;49.90;;;;;;4908308;29;20810;-72
2022/09/08 08:23:30;;;;;;;1.20;0.83;;;24.50;49.70;;;;;;4913386;29;20477;-73
2022/09/08 08:26:12;;;;;;;2.73;0.80;;;24.50;49.70;;;;;;4900607;29;20459;-73
2022/09/08 08:28:42;;;;;;;1.80;1.30;;;24.50;49.80;;;;;;4906152;29;20461;-72
2022/09/08 08:31:26;;;;;;;1.13;0.90;;;24.50;49.80;;;;;;4928381;29;20535;-73
2022/09/08 08:34:02;;;;;;;1.67;1.20;;;24.50;49.80;;;;;;4902491;29;20505;-72
2022/09/08 08:36:38;;;;;;;1.47;1.27;;;24.50;49.90;;;;;;4920197;29;20954;-72
2022/09/08 08:39:13;;;;;;;1.93;1.07;;;24.50;50.00;;;;;;4926676;29;20519;-72
2022/09/08 08:41:57;;;;;;;1.40;0.57;;;24.50;50.00;;;;;;4914382;29;20472;-73
2022/09/08 08:44:52;;;;;;;2.97;1.10;;;24.40;50.00;;;;;;4912812;29;20560;-72
2022/09/08 08:48:09;;;;;;;1.50;0.80;;;24.50;50.10;;;;;;4908728;29;20487;-72
2022/09/08 08:51:03;;;;;;;1.60;0.80;;;24.40;49.90;;;;;;4899118;29;21091;-72
2022/09/08 08:54:02;;;;;;;1.53;1.03;;;24.50;49.90;;;;;;4915185;29;20473;-71
2022/09/08 08:56:36;;;;;;;1.37;0.80;;;24.50;49.80;;;;;;4883714;29;20488;-72
2022/09/08 08:59:32;;;;;;;1.87;1.00;;;24.50;49.70;;;;;;4911705;29;20437;-72
2022/09/08 09:02:15;;;;;;;2.30;0.90;;;24.50;49.80;;;;;;4919361;29;20841;-72
2022/09/08 09:04:57;;;;;;;1.07;0.97;;;24.40;49.60;;;;;;4910458;29;20468;-72
2022/09/08 09:08:03;;;;;;;1.20;0.70;;;24.40;49.70;;;;;;4916090;29;21048;-72
2022/09/08 09:10:49;;;;;;;1.90;1.40;;;24.40;49.80;;;;;;4876734;29;20454;-72
2022/09/08 09:13:55;;;;;;;0.90;0.90;;;24.40;50.00;;;;;;4916514;29;20480;-72
2022/09/08 09:16:42;;;;;;;2.20;0.90;;;24.40;50.00;;;;;;4892220;29;20443;-72
2022/09/08 09:19:36;;;;;;;0.87;0.70;;;24.40;50.00;;;;;;4909183;29;20445;-65
2022/09/08 09:22:15;;;;;;;2.00;1.30;;;24.40;50.00;;;;;;4918950;29;20453;-72
2022/09/08 09:25:10;;;;;;;1.23;0.83;;;24.40;50.10;;;;;;4923757;29;20460;-71
2022/09/08 09:27:45;;;;;;;1.60;0.80;;;24.40;50.00;;;;;;4906090;29;20599;-72
2022/09/08 09:30:23;;;;;;;1.17;0.80;;;24.40;49.90;;;;;;4910042;29;20794;-71
2022/09/08 09:33:21;;;;;;;1.50;1.10;;;24.40;50.00;;;;;;4916614;29;20470;-72
2022/09/08 09:36:19;;;;;;;0.97;0.80;;;24.40;50.00;;;;;;4889644;29;20485;-72
2022/09/08 09:39:12;;;;;;;2.30;1.10;;;24.30;49.70;;;;;;4917984;29;20985;-71
2022/09/08 09:42:02;;;;;;;0.93;0.70;;;24.30;49.70;;;;;;4913618;29;20472;-72
2022/09/08 09:44:54;;;;;;;0.70;0.60;;;24.30;49.70;;;;;;4908622;29;20480;-72
2022/09/08 09:47:52;;;;;;;0.90;0.90;;;24.30;49.70;;;;;;4902863;29;20481;-72
2022/09/08 09:50:57;;;;;;;3.13;0.60;;;24.30;49.70;;;;;;4896897;29;20460;-72
2022/09/08 09:53:58;;;;;;;1.53;0.80;;;24.30;49.70;;;;;;4904256;29;20480;-72
2022/09/08 09:57:01;;;;;;;2.23;0.90;;;24.30;49.80;;;;;;4910314;29;20532;-71
2022/09/08 10:00:23;;;;;;;1.43;0.67;;;24.30;49.70;;;;;;4876652;29;20453;-72
2022/09/08 10:03:37;;;;;;;1.53;0.90;;;24.30;49.60;;;;;;4909449;29;20481;-72
2022/09/08 10:06:25;;;;;;;1.07;1.00;;;24.30;49.70;;;;;;4882584;29;20826;-71
2022/09/08 10:09:38;;;;;;;0.97;0.60;;;24.30;49.60;;;;;;4916567;29;20965;-71
2022/09/08 10:12:35;;;;;;;3.07;0.70;;;24.30;49.60;;;;;;4893236;29;20984;-72
2022/09/08 10:15:39;;;;;;;1.17;1.07;;;24.30;49.50;;;;;;4901719;29;20517;-71
2022/09/08 10:18:57;;;;;;;3.30;1.13;;;24.30;49.60;;;;;;4914675;29;21071;-72
2022/09/08 10:22:10;;;;;;;1.13;0.63;;;24.30;49.60;;;;;;4894425;29;20460;-72
2022/09/08 10:25:14;;;;;;;1.20;0.73;;;24.30;49.20;;;;;;4896362;29;20471;-72
2022/09/08 10:28:07;;;;;;;0.90;0.60;;;24.30;49.30;;;;;;4907611;29;20473;-72
2022/09/08 10:31:01;;;;;;;1.43;0.63;;;24.30;49.10;;;;;;4904836;29;20468;-71
2022/09/08 10:34:00;;;;;;;0.80;0.60;;;24.30;49.00;;;;;;4902357;29;20525;-72
2022/09/08 10:36:51;;;;;;;1.00;0.80;;;24.30;49.20;;;;;;4894673;29;20544;-71
2022/09/08 10:39:36;;;;;;;0.90;0.80;;;24.30;49.30;;;;;;4908814;29;20476;-71
2022/09/08 10:42:47;;;;;;;2.40;0.80;;;24.30;49.10;;;;;;4905521;29;20475;-71
2022/09/08 10:45:23;;;;;;;0.60;0.47;;;24.30;49.20;;;;;;4928641;29;20973;-72
2022/09/08 10:48:34;;;;;;;1.50;0.87;;;24.30;49.30;;;;;;4912008;29;20571;-71
2022/09/08 10:51:36;;;;;;;1.20;0.77;;;24.30;49.40;;;;;;4919569;29;20441;-72
2022/09/08 10:54:26;;;;;;;0.90;0.53;;;24.30;49.70;;;;;;4922448;29;20909;-72
2022/09/08 10:56:59;;;;;;;0.87;0.80;;;24.20;49.50;;;;;;4911569;29;20538;-72
2022/09/08 10:59:55;;;;;;;1.17;0.70;;;24.20;50.70;;;;;;4913580;29;20552;-72
2022/09/08 11:02:47;;;;;;;1.00;0.60;;;24.20;49.60;;;;;;4908980;29;20465;-71
2022/09/08 11:05:43;;;;;;;1.73;0.80;;;24.20;49.50;;;;;;4916917;29;20768;-71
2022/09/08 11:12:02;;;;;;;1.03;0.60;;;24.20;49.60;;;;;;4904090;29;20572;-66
2022/09/08 11:14:55;;;;;;;0.77;0.60;;;24.20;49.40;;;;;;4913323;29;20548;-66
2022/09/08 11:17:24;;;;;;;0.90;0.60;;;24.20;49.50;;;;;;4920800;23;21084;-51
2022/09/08 11:20:02;;;;;;;1.30;0.97;;;24.20;49.40;;;;;;4916751;29;21046;-51
2022/09/08 11:22:49;;;;;;;1.60;0.70;;;24.20;49.50;;;;;;4908601;29;20468;-52
2022/09/08 11:25:45;;;;;;;0.80;0.50;;;24.10;49.20;;;;;;4921725;29;20504;-52
2022/09/08 11:28:22;;;;;;;0.80;0.60;;;24.10;49.20;;;;;;4915473;29;20988;-51
2022/09/08 11:31:03;;;;;;;1.00;0.80;;;24.10;49.30;;;;;;4920784;29;20449;-52
2022/09/08 11:33:50;;;;;;;1.00;0.67;;;24.10;49.20;;;;;;4901254;29;21037;-51
2022/09/08 11:36:40;;;;;;;1.43;0.93;;;24.10;49.20;;;;;;4888488;29;20436;-52
2022/09/08 11:39:22;;;;;;;0.80;0.50;;;24.10;49.10;;;;;;4904197;29;20469;-50
2022/09/08 11:42:18;;;;;;;1.90;0.93;;;24.10;49.00;;;;;;4921599;29;20515;-52
2022/09/08 11:44:51;;;;;;;1.03;0.93;;;24.20;50.00;;;;;;4903816;29;20544;-52
2022/09/08 11:47:56;;;;;;;1.10;0.60;;;24.10;48.60;;;;;;4894069;29;20545;-52
2022/09/08 11:50:53;;;;;;;1.67;0.50;;;24.10;48.30;;;;;;4887504;29;20969;-52
2022/09/08 11:53:56;;;;;;;1.17;0.77;;;24.10;48.30;;;;;;4920113;29;21098;-51
2022/09/08 11:57:11;;;;;;;1.13;0.70;;;24.10;48.40;;;;;;4902739;29;20453;-52
2022/09/08 12:00:04;;;;;;;1.40;0.77;;;24.10;48.40;;;;;;4901353;29;21023;-50
2022/09/08 12:03:05;;;;;;;1.03;0.63;;;24.10;48.50;;;;;;4919959;29;20477;-52
2022/09/08 12:05:57;;;;;;;0.73;0.60;;;24.10;48.40;;;;;;4903925;29;20531;-52
2022/09/08 12:09:05;;;;;;;1.00;0.63;;;24.10;48.20;;;;;;4913879;29;20468;-50
2022/09/08 12:12:09;;;;;;;1.17;0.63;;;24.10;48.40;;;;;;4924766;29;20831;-51
2022/09/08 12:14:50;;;;;;;1.57;0.60;;;24.10;48.00;;;;;;4908519;29;20496;-52
2022/09/08 12:17:32;;;;;;;1.37;0.90;;;24.10;47.80;;;;;;4903064;29;20844;-53
2022/09/08 12:20:17;;;;;;;1.63;0.67;;;24.10;48.20;;;;;;4907744;29;20874;-52
2022/09/08 12:23:06;;;;;;;1.33;0.60;;;24.10;47.70;;;;;;4904246;29;20980;-50
2022/09/08 12:25:52;;;;;;;1.57;0.80;;;24.10;48.00;;;;;;4908049;29;20473;-52
2022/09/08 12:29:08;;;;;;;1.73;0.80;;;24.10;47.50;;;;;;4919234;29;20991;-51
2022/09/08 12:31:58;;;;;;;1.00;0.57;;;24.10;47.70;;;;;;4925317;29;20480;-52
2022/09/08 12:35:00;;;;;;;2.50;0.83;;;24.10;47.60;;;;;;4905944;29;20465;-51
2022/09/08 12:37:43;;;;;;;1.27;0.60;;;24.10;47.70;;;;;;4898791;29;20559;-52
2022/09/08 12:40:40;;;;;;;5.30;0.70;;;24.10;47.50;;;;;;4895930;29;20560;-51
2022/09/08 12:43:17;;;;;;;1.43;0.60;;;24.10;47.60;;;;;;4916980;29;20474;-52
2022/09/08 12:45:58;;;;;;;0.70;0.50;;;24.10;47.60;;;;;;4909235;29;20459;-53
2022/09/08 12:48:33;;;;;;;0.80;0.60;;;24.10;47.20;;;;;;4890776;29;20763;-51
2022/09/08 12:51:10;;;;;;;1.40;0.73;;;24.10;47.20;;;;;;4911396;29;20440;-51
2022/09/08 12:54:04;;;;;;;1.17;0.57;;;24.10;47.40;;;;;;4886009;29;20500;-51
2022/09/08 12:56:45;;;;;;;3.73;0.90;;;24.10;47.30;;;;;;4878188;29;20457;-51
2022/09/08 12:59:25;;;;;;;0.70;0.60;;;24.10;47.30;;;;;;4898462;29;20540;-51
2022/09/08 13:02:00;;;;;;;4.80;0.63;;;24.10;47.20;;;;;;4899265;29;20465;-52
2022/09/08 13:04:42;;;;;;;1.57;0.80;;;24.10;47.20;;;;;;4903430;29;21026;-50
2022/09/08 13:07:23;;;;;;;1.77;1.00;;;24.10;47.20;;;;;;4897097;29;20482;-51
2022/09/08 13:10:14;;;;;;;1.20;0.47;;;24.10;47.20;;;;;;4908881;29;20491;-51
2022/09/08 13:13:05;;;;;;;1.60;1.20;;;24.10;47.20;;;;;;4916221;29;20469;-51
2022/09/08 13:15:46;;;;;;;2.00;0.90;;;24.10;47.10;;;;;;4910315;29;20468;-49
2022/09/08 13:18:28;;;;;;;1.63;0.90;;;24.10;47.10;;;;;;4921485;29;20481;-50
2022/09/08 13:21:08;;;;;;;1.23;0.83;;;24.10;47.20;;;;;;4916008;29;20933;-51
2022/09/08 13:23:46;;;;;;;1.90;0.70;;;24.10;47.10;;;;;;4907001;29;20973;-51
2022/09/08 13:26:47;;;;;;;1.20;0.70;;;24.10;47.30;;;;;;4906900;29;20459;-50
2022/09/08 13:29:50;;;;;;;1.50;0.73;;;24.10;46.90;;;;;;4926879;29;20457;-52
2022/09/08 13:33:07;;;;;;;1.00;0.60;;;24.10;47.00;;;;;;4920851;29;20474;-51
2022/09/08 13:35:59;;;;;;;1.70;0.73;;;24.10;47.00;;;;;;4892987;29;20480;-50
2022/09/08 13:38:53;;;;;;;6.90;0.80;;;24.10;47.00;;;;;;4913149;29;21013;-50
2022/09/08 13:41:36;;;;;;;1.20;0.80;;;24.00;46.50;;;;;;4890725;29;20449;-52
2022/09/08 13:44:37;;;;;;;0.90;0.60;;;24.10;46.70;;;;;;4905839;29;20461;-51
2022/09/08 13:47:35;;;;;;;1.83;0.80;;;24.00;46.90;;;;;;4908352;29;20453;-51
2022/09/08 13:50:21;;;;;;;0.90;0.70;;;24.00;46.50;;;;;;4904411;29;20546;-50
2022/09/08 13:53:07;;;;;;;1.80;0.57;;;24.10;47.00;;;;;;4903864;29;20473;-50
2022/09/08 13:55:50;;;;;;;1.43;0.70;;;24.10;46.50;;;;;;4901234;29;20856;-50
2022/09/08 13:58:40;;;;;;;2.80;0.70;;;24.00;46.90;;;;;;4918625;29;20480;-51